Flight Track Log - Related Links

Times and Time Zones

All times are in EDT time to prevent confusion due to time zone crossing. See the SWA508 flight status page for this flight to view local times or setup timezone preferences in your user account.

Time Position Orientation Groundspeed Altitude Reporting Facility
EDT Latitude Longitude Course Direction KTS MPH feet Rate Location/Type
Mon 03:49:56 PM 39.8803 -75.2081 270° West 143 165 2,000  Level FAA TRACON SMA TRACON (SMA)
Mon 03:50:16 PM 39.8869 -75.1881 67° East 182 209 2,700 2,900 Climbing FAA TRACON SMA TRACON (SMA)
Mon 03:50:56 PM 39.8994 -75.1494 67° East 183 211 4,900 3,148 Climbing FAA TRACON SMA TRACON (SMA)
Mon 03:51:17 PM 39.9169 -75.1439 14° North 220 253 5,900 3,750 Climbing FAA TRACON SMA TRACON (SMA)
Mon 03:51:36 PM 39.9350 -75.1631 321° Northwest 236 272 7,400 3,846 Climbing FAA TRACON SMA TRACON (SMA)
Mon 03:51:56 PM 39.9367 -75.1892 275° West 247 284 8,400 2,700 Climbing FAA TRACON SMA TRACON (SMA)
Mon 03:52:16 PM 39.9361 -75.2164 268° West 247 284 9,200 2,400 Climbing FAA TRACON SMA TRACON (SMA)
Mon 03:52:36 PM 39.9344 -75.2553 267° West 273 314 10,000 1,350 Climbing FAA TRACON SMA TRACON (SMA)
Mon 03:52:56 PM 39.9328 -75.2881 266° West 314 361 10,100 150 Climbing FAA TRACON SMA TRACON (SMA)
Mon 03:53:16 PM 39.9311 -75.3317 267° West 323 372 10,100 -150 Level FAA TRACON SMA TRACON (SMA)
Mon 03:53:36 PM 39.9300 -75.3669 268° West 325 374 10,000 -146 Descending FAA TRACON SMA TRACON (SMA)
Mon 03:53:57 PM 39.9286 -75.4019 267° West 326 375 10,000  Level FAA TRACON SMA TRACON (SMA)
Mon 03:54:16 PM 39.9267 -75.4489 267° West 327 376 10,000  Level FAA TRACON SMA TRACON (SMA)
Mon 03:54:37 PM 39.9253 -75.4847 267° West 325 374 10,000  Level FAA TRACON SMA TRACON (SMA)
Mon 03:54:56 PM 39.9239 -75.5208 267° West 325 374 10,000  Level FAA TRACON SMA TRACON (SMA)
Mon 03:55:00 PM 39.9000 -75.9980 270° West  Level FlightAware Approximate
Mon 03:55:16 PM 39.9225 -75.5658 268° West 325 374 10,000  Level FAA TRACON SMA TRACON (SMA)
Mon 03:55:36 PM 39.9206 -75.6025 266° West 325 374 10,300 1,902 Climbing FAA TRACON SMA TRACON (SMA)
Mon 03:55:57 PM 39.9192 -75.6378 267° West 328 377 11,300 4,098 Climbing FAA TRACON SMA TRACON (SMA)
Mon 03:56:17 PM 39.9175 -75.6847 267° West 328 377 13,100 4,500 Climbing FAA TRACON SMA TRACON (SMA)
Mon 03:56:37 PM 39.9164 -75.7214 268° West 330 380 14,300 3,538 Climbing FAA TRACON SMA TRACON (SMA)
Mon 03:56:56 PM 39.9158 -75.7589 269° West 335 386 15,400 3,846 Climbing FAA TRACON SMA TRACON (SMA)
Mon 03:57:16 PM 39.9153 -75.8061 269° West 346 398 16,800 3,805 Climbing FAA TRACON SMA TRACON (SMA)
Mon 03:57:37 PM 39.9142 -75.8450 268° West 347 399 18,000 1,756 Climbing FAA TRACON SMA TRACON (SMA)
Mon 03:57:57 PM 39.9142 -75.8661 270° West 350 403 18,000  Level FAA TRACON SMA TRACON (SMA)
Mon 03:58:36 PM 39.9142 -75.8661 194° South 350 403 18,000 1,988 Level FAA TRACON SMA TRACON (SMA)
Mon 04:00:40 PM 39.9078 -76.2347 269° West 366 421 23,400 2,465 Climbing New York Center
Mon 04:01:41 PM 39.9136 -76.3733 273° West 371 427 25,600 1,800 Climbing New York Center
Mon 04:02:40 PM 39.9194 -76.5119 273° West 383 441 27,000 1,160 Climbing New York Center
Mon 04:03:40 PM 39.9253 -76.6506 273° West 388 447 27,900 942 Climbing New York Center
Mon 04:04:41 PM 39.8939 -76.7750 252° West 374 430 28,900 1,344 Climbing New York Center
Mon 04:06:43 PM 39.7783 -77.0144 238° Southwest 356 410 32,000 1,022 Climbing Washington Center
Mon 04:07:43 PM 39.7311 -77.1214 240° Southwest 356 410 32,000  Level Washington Center
Mon 04:08:43 PM 39.6797 -77.2308 239° Southwest 356 410 32,000  Level Washington Center
Mon 04:09:43 PM 39.6303 -77.3375 239° Southwest 356 410 32,000  Level Washington Center
Mon 04:10:43 PM 39.5786 -77.4467 238° Southwest 356 410 32,000  Level Washington Center
Mon 04:11:43 PM 39.5269 -77.5556 238° Southwest 356 410 32,000  Level Washington Center
Mon 04:12:43 PM 39.4750 -77.6617 238° Southwest 356 410 32,000  Level Washington Center
Mon 04:13:42 PM 39.4231 -77.7703 238° Southwest 356 410 32,000  Level Washington Center
Mon 04:14:43 PM 39.3731 -77.8817 240° Southwest 356 410 32,000  Level Washington Center
Mon 04:15:43 PM 39.3272 -77.9956 243° Southwest 356 410 32,000  Level Washington Center
Mon 04:16:43 PM 39.2831 -78.1094 243° Southwest 356 410 32,000  Level Washington Center
Mon 04:17:42 PM 39.2369 -78.2258 243° Southwest 361 415 32,000  Level Washington Center
Mon 04:18:43 PM 39.1928 -78.3367 243° Southwest 361 415 32,000  Level Washington Center
Mon 04:19:43 PM 39.1464 -78.4500 242° Southwest 361 415 32,000  Level Washington Center
Mon 04:20:43 PM 39.0997 -78.5658 243° Southwest 361 415 32,000 100 Level Washington Center
Mon 04:21:43 PM 39.0531 -78.6817 243° Southwest 361 415 32,200 500 Climbing Washington Center
Mon 04:22:43 PM 39.0064 -78.7944 242° Southwest 361 415 33,000 600 Climbing Washington Center
Mon 04:23:43 PM 38.9594 -78.9100 242° Southwest 361 415 33,400 500 Climbing Washington Center
Mon 04:24:43 PM 38.9122 -79.0253 242° Southwest 361 415 34,000 950 Climbing Washington Center
Mon 04:25:43 PM 38.8631 -79.1428 242° Southwest 361 415 35,300 1,750 Climbing Washington Center
Mon 04:26:43 PM 38.8303 -79.2639 251° West 366 421 37,500 1,700 Climbing Washington Center
Mon 04:27:43 PM 38.8053 -79.3931 256° West 366 421 38,700 950 Climbing Washington Center
Mon 04:28:43 PM 38.7844 -79.5253 259° West 374 430 39,400 600 Climbing Washington Center
Mon 04:29:43 PM 38.7589 -79.6650 257° West 395 455 39,900 300 Climbing Washington Center
Mon 04:30:43 PM 38.7331 -79.8072 257° West 405 466 40,000 50 Climbing Washington Center
Mon 04:31:43 PM 38.7053 -79.9467 256° West 413 475 40,000  Level Washington Center
Mon 04:32:43 PM 38.6819 -80.0731 257° West 413 475 40,000  Level Washington Center
Mon 04:33:46 PM 38.6528 -80.2186 256° West 404 465 40,000  Level Indianapolis Center
Mon 04:34:48 PM 38.6278 -80.3581 257° West 403 464 40,000  Level Indianapolis Center
Mon 04:35:50 PM 38.6008 -80.4953 256° West 398 458 40,000  Level Indianapolis Center
Mon 04:36:52 PM 38.5719 -80.6325 255° West 400 460 40,000  Level Indianapolis Center
Mon 04:37:54 PM 38.5322 -80.7969 253° West 402 463 40,000  Level Indianapolis Center
Mon 04:38:56 PM 38.4975 -80.9347 252° West 406 467 40,000  Level Indianapolis Center
Mon 04:39:58 PM 38.4636 -81.0711 252° West 401 461 40,000  Level Indianapolis Center
Mon 04:41:00 PM 38.4300 -81.2108 253° West 407 468 40,000  Level Indianapolis Center
Mon 04:42:02 PM 38.3953 -81.3500 252° West 408 470 40,000  Level Indianapolis Center
Mon 04:43:04 PM 38.3617 -81.4892 253° West 407 468 40,000  Level Indianapolis Center
Mon 04:44:06 PM 38.3253 -81.6272 251° West 407 468 40,000  Level Indianapolis Center
Mon 04:45:08 PM 38.2903 -81.7642 252° West 405 466 40,000  Level Indianapolis Center
Mon 04:46:10 PM 38.2567 -81.9011 253° West 404 465 40,000  Level Indianapolis Center
Mon 04:47:11 PM 38.2208 -82.0358 251° West 402 463 40,000  Level Indianapolis Center
Mon 04:48:13 PM 38.1792 -82.1992 252° West 404 465 40,000  Level Indianapolis Center
Mon 04:49:15 PM 38.1444 -82.3361 252° West 405 466 40,000  Level Indianapolis Center
Mon 04:50:17 PM 38.1092 -82.4725 252° West 406 467 40,000  Level Indianapolis Center
Mon 04:51:19 PM 38.0725 -82.6061 251° West 402 463 40,000  Level Indianapolis Center
Mon 04:52:21 PM 38.0367 -82.7425 252° West 407 468 40,000  Level Indianapolis Center
Mon 04:53:23 PM 37.9961 -82.9006 252° West 405 466 40,000  Level Indianapolis Center
Mon 04:54:25 PM 37.9597 -83.0347 251° West 403 464 40,000 -439 Level Indianapolis Center
Mon 04:55:26 PM 37.9247 -83.1686 252° West 400 460 39,100 -878 Descending Indianapolis Center
Mon 04:56:28 PM 37.8825 -83.2986 248° West 401 461 38,200 -968 Descending Indianapolis Center
Mon 04:57:30 PM 37.8214 -83.4106 235° Southwest 388 447 37,100 -1,258 Descending Indianapolis Center
Mon 04:58:32 PM 37.7619 -83.5239 236° Southwest 387 445 35,600 -1,500 Descending Indianapolis Center
Mon 04:59:34 PM 37.6894 -83.6619 236° Southwest 402 463 34,000 -774 Descending Indianapolis Center
Mon 05:00:36 PM 37.6300 -83.7758 237° Southwest 393 452 34,000  Level Indianapolis Center
Mon 05:01:38 PM 37.5703 -83.8894 236° Southwest 390 449 34,000  Level Indianapolis Center
Mon 05:02:40 PM 37.5089 -84.0042 236° Southwest 394 453 34,000  Level Indianapolis Center
Mon 05:03:42 PM 37.4483 -84.1189 236° Southwest 394 453 34,000 -145 Level Indianapolis Center
Mon 05:04:44 PM 37.3761 -84.2522 236° Southwest 395 455 33,700 -683 Descending Indianapolis Center
Mon 05:05:45 PM 37.3147 -84.3675 236° Southwest 396 456 32,600 -1,024 Descending Indianapolis Center
Mon 05:06:47 PM 37.2547 -84.4794 236° Southwest 391 450 31,600 -968 Descending Indianapolis Center
Mon 05:07:49 PM 37.1942 -84.5908 236° Southwest 387 445 30,600 -968 Descending Indianapolis Center
Mon 05:08:51 PM 37.1344 -84.7017 236° Southwest 385 443 29,600 -1,065 Descending Indianapolis Center
Mon 05:09:53 PM 37.0644 -84.8275 235° Southwest 377 434 28,400 -1,113 Descending Indianapolis Center
Mon 05:10:55 PM 37.0072 -84.9369 237° Southwest 366 421 27,300 -1,016 Descending Indianapolis Center
Mon 05:11:57 PM 36.9489 -85.0422 235° Southwest 369 425 26,300 -968 Descending Indianapolis Center
Mon 05:12:59 PM 36.8925 -85.1467 236° Southwest 365 420 25,300 -968 Descending Indianapolis Center
Mon 05:14:01 PM 36.8347 -85.2511 235° Southwest 365 420 24,300 -1,161 Descending Indianapolis Center
Mon 05:15:03 PM 36.7775 -85.3519 235° Southwest 358 412 22,900 -1,630 Descending Indianapolis Center
Mon 05:15:22 PM 36.7533 -85.3928 234° Southwest 368 423 22,100 -684 Descending Memphis Center
Mon 05:16:22 PM 36.7075 -85.4967 241° Southwest 357 411 22,000 -550 Descending Memphis Center
Mon 05:17:22 PM 36.6569 -85.5928 237° Southwest 349 402 21,000 -2,000 Descending Memphis Center
Mon 05:18:22 PM 36.6108 -85.6961 241° Southwest 349 402 18,000 -2,550 Descending Memphis Center
Mon 05:19:22 PM 36.5625 -85.7947 239° Southwest 349 402 15,900 -2,200 Descending Memphis Center
Mon 05:20:22 PM 36.5183 -85.8978 242° Southwest 349 402 13,600 -1,950 Descending Memphis Center
Mon 05:21:22 PM 36.4753 -85.9803 237° Southwest 337 388 12,000 -1,750 Descending Memphis Center
Mon 05:22:22 PM 36.4328 -86.0753 241° Southwest 325 374 10,100 -1,550 Descending Memphis Center
Mon 05:23:22 PM 36.3961 -86.1597 242° Southwest 304 350 8,900 -1,400 Descending Memphis Center
Mon 05:24:22 PM 36.3633 -86.2414 244° Southwest 280 322 7,300 -1,600 Descending Memphis Center
Mon 05:25:22 PM 36.3286 -86.3281 244° Southwest 280 322 5,700 -1,600 Descending Memphis Center
Mon 05:26:22 PM 36.2939 -86.4097 242° Southwest 280 322 4,100 -1,550 Descending Memphis Center
Mon 05:27:22 PM 36.2569 -86.5014 243° Southwest 275 316 2,600 -1,000 Descending Memphis Center
Mon 05:28:22 PM 36.2261 -86.5775 243° Southwest 269 310 2,100 -300 Descending Memphis Center
Mon 05:29:22 PM 36.2006 -86.6328 240° Southwest 222 255 2,000 -400 Descending Memphis Center
Mon 05:30:22 PM 36.1656 -86.6472 198° South 130 150 1,300 -600 Descending Memphis Center
Mon 05:31:22 PM 36.1286 -86.6617 198° South 130 150 800 -500 Descending Memphis Center

Login

Don't have an account? Register now (free) for customized features, flight alerts, and more!